Date,TemperatureHighF,TemperatureAvgF,TemperatureLowF,DewpointHighF,DewpointAvgF,DewpointLowF,HumidityHigh,HumidityAvg,HumidityLow,PressureMaxIn,PressureMinIn,WindSpeedMaxMPH,WindSpeedAvgMPH,GustSpeedMaxMPH,PrecipitationSumIn
2013-1-1,28,12,1,-100,-100,-100,0,0,100,0.00,40.00,0,-999,0,0.00
2013-1-2,25,10,-1,-100,-100,-100,0,0,100,0.00,40.00,0,-999,0,0.00
2013-1-3,29,11,-3,-100,-100,-100,0,0,100,0.00,40.00,0,-999,0,0.00
2013-1-4,27,11,-2,-100,-100,-100,0,0,100,0.00,40.00,0,-999,0,0.00
2013-1-5,30,11,-3,-100,-100,-100,0,0,100,0.00,40.00,0,-999,0,0.00
2013-1-6,43,19,1,-100,-100,-100,0,0,100,0.00,40.00,0,-999,0,0.00
2013-1-7,44,26,11,-100,-100,-100,0,0,100,0.00,40.00,0,-999,0,0.00
2013-1-8,34,18,5,-100,-100,-100,0,0,100,0.00,40.00,0,-999,0,0.00
2013-1-9,48,24,9,-100,-100,-100,0,0,100,0.00,40.00,0,-999,0,0.00
2013-1-10,41,29,13,-100,-100,-100,0,0,100,0.00,40.00,0,-999,0,0.00
2013-1-11,37,22,-5,-100,-100,-100,0,0,100,0.00,40.00,0,-999,0,0.00
2013-1-12,21,5,-11,-100,-100,-100,0,0,100,0.00,40.00,0,-999,0,0.00
2013-1-13,25,11,-7,-100,-100,-100,0,0,100,0.00,40.00,0,-999,0,0.00
2013-1-14,22,12,-8,-100,-100,-100,0,0,100,0.00,40.00,0,-999,0,0.00
2013-1-15,21,3,-13,-100,-100,-100,0,0,100,0.00,40.00,0,-999,0,0.00
2013-1-16,28,10,-3,-100,-100,-100,0,0,100,0.00,40.00,0,-999,0,0.00
2013-1-17,41,18,2,-100,-100,-100,0,0,100,0.00,40.00,0,-999,0,0.00
2013-1-18,41,23,7,-100,-100,-100,0,0,100,0.00,40.00,0,-999,0,0.00
2013-1-19,38,18,6,-100,-100,-100,0,0,100,0.00,40.00,0,-999,0,0.00
2013-1-20,38,21,5,-100,-100,-100,0,0,100,0.00,40.00,0,-999,0,0.00
2013-1-21,41,22,8,-100,-100,-100,0,0,100,0.00,40.00,0,-999,0,0.00
2013-1-22,42,23,9,-100,-100,-100,0,0,100,0.00,40.00,0,-999,0,0.00
2013-1-23,48,26,10,-100,-100,-100,0,0,100,0.00,40.00,0,-999,0,0.00
2013-1-24,50,36,24,-100,-100,-100,0,0,100,0.00,40.00,0,-999,0,0.00
2013-1-25,45,39,35,-100,-100,-100,0,0,100,0.00,40.00,0,-999,0,0.00
2013-1-26,41,38,35,-100,-100,-100,0,0,100,0.00,40.00,0,-999,0,0.00
2013-1-27,47,38,35,-100,-100,-100,0,0,100,0.00,40.00,0,-999,0,0.00
2013-1-28,37,34,28,-100,-100,-100,0,0,100,0.00,40.00,0,-999,0,0.00
2013-1-29,29,25,20,-100,-100,-100,0,0,100,0.00,40.00,0,-999,0,0.00
2013-1-30,36,27,19,-100,-100,-100,0,0,100,0.00,40.00,0,-999,0,0.00
2013-1-31,46,36,24,-100,-100,-100,0,0,100,0.00,40.00,0,-999,0,0.00
2013-2-1,49,32,21,-100,-100,-100,0,0,100,0.00,40.00,0,-999,0,0.00
2013-2-2,44,32,22,-100,-100,-100,0,0,100,0.00,40.00,0,-999,0,0.00
2013-2-3,44,35,26,-100,-100,-100,0,0,100,0.00,40.00,0,-999,0,0.00
2013-2-4,44,30,23,-100,-100,-100,0,0,100,0.00,40.00,0,-999,0,0.00
2013-2-5,49,33,23,-100,-100,-100,0,0,100,0.00,40.00,0,-999,0,0.00
2013-2-6,48,37,26,-100,-100,-100,0,0,100,0.00,40.00,0,-999,0,0.00
2013-2-7,48,33,21,-100,-100,-100,0,0,100,0.00,40.00,0,-999,0,0.00
2013-2-8,56,42,27,-100,-100,-100,0,0,100,0.00,40.00,0,-999,0,0.00
2013-2-9,31,28,25,-100,-100,-100,0,0,100,0.00,40.00,0,-999,0,0.00
2013-2-10,32,27,23,-100,-100,-100,0,0,100,0.00,40.00,0,-999,0,0.00
2013-2-11,32,24,8,-100,-100,-100,0,0,100,0.00,40.00,0,-999,0,0.00
2013-2-12,36,18,-3,-100,-100,-100,0,0,100,0.00,40.00,0,-999,0,0.00
2013-2-13,40,22,5,-100,-100,-100,0,0,100,0.00,40.00,0,-999,0,0.00
2013-2-14,43,27,8,-100,-100,-100,0,0,100,0.00,40.00,0,-999,0,0.00
2013-2-15,44,34,21,-100,-100,-100,0,0,100,0.00,40.00,0,-999,0,0.00
2013-2-16,51,32,15,-100,-100,-100,0,0,100,0.00,40.00,0,-999,0,0.00
2013-2-17,52,35,21,-100,-100,-100,0,0,100,0.00,40.00,0,-999,0,0.00
2013-2-18,42,32,21,-100,-100,-100,0,0,100,0.00,40.00,0,-999,0,0.00
2013-2-19,50,33,19,-100,-100,-100,0,0,100,0.00,40.00,0,-999,0,0.00
2013-2-20,35,29,16,-100,-100,-100,0,0,100,0.00,40.00,0,-999,0,0.00
2013-2-21,39,32,11,-100,-100,-100,0,0,100,0.00,40.00,0,-999,0,0.00
2013-2-22,34,28,23,-100,-100,-100,0,0,100,0.00,40.00,0,-999,0,0.00
2013-2-23,38,28,15,-100,-100,-100,0,0,100,0.00,40.00,0,-999,0,0.00
2013-2-24,36,26,16,-100,-100,-100,0,0,100,0.00,40.00,0,-999,0,0.00
2013-2-25,43,28,14,-100,-100,-100,0,0,100,0.00,40.00,0,-999,0,0.00
2013-2-26,34,27,17,-100,-100,-100,0,0,100,0.00,40.00,0,-999,0,0.00
2013-2-27,41,27,12,-100,-100,-100,0,0,100,0.00,40.00,0,-999,0,0.00
2013-2-28,46,31,14,-100,-100,-100,0,0,100,0.00,40.00,0,-999,0,0.00
2013-3-1,54,43,30,-100,-100,-100,0,0,100,0.00,40.00,0,-999,0,0.00
2013-3-2,61,41,24,-100,-100,-100,0,0,100,0.00,40.00,0,-999,0,0.00
2013-3-3,54,41,28,-100,-100,-100,0,0,100,0.00,40.00,0,-999,0,0.00
2013-3-4,53,42,26,-100,-100,-100,0,0,100,0.00,40.00,0,-999,0,0.00
2013-3-5,56,38,22,-100,-100,-100,0,0,100,0.00,40.00,0,-999,0,0.00
2013-3-6,60,43,29,-100,-100,-100,0,0,100,0.00,40.00,0,-999,0,0.00
2013-3-7,62,43,27,-100,-100,-100,0,0,100,0.00,40.00,0,-999,0,0.00
2013-3-8,48,38,32,-100,-100,-100,0,0,100,0.00,40.00,0,-999,0,0.00
2013-3-9,38,32,27,-100,-100,-100,0,0,100,0.00,40.00,0,-999,0,0.00
2013-3-10,49,34,21,-100,-100,-100,0,0,100,0.00,40.00,0,-999,0,0.00
2013-3-11,54,39,23,-100,-100,-100,0,0,100,0.00,40.00,0,-999,0,0.00
2013-3-12,60,45,27,-100,-100,-100,0,0,100,0.00,40.00,0,-999,0,0.00
2013-3-13,65,44,27,-100,-100,-100,0,0,100,0.00,40.00,0,-999,0,0.00
2013-3-14,71,49,29,-100,-100,-100,0,0,100,0.00,40.00,0,-999,0,0.00
2013-3-15,72,50,32,-100,-100,-100,0,0,100,0.00,40.00,0,-999,0,0.00
2013-3-16,64,48,36,-100,-100,-100,0,0,100,0.00,40.00,0,-999,0,0.00
2013-3-17,59,45,32,-100,-100,-100,0,0,100,0.00,40.00,0,-999,0,0.00
2013-3-18,56,45,31,-100,-100,-100,0,0,100,0.00,40.00,0,-999,0,0.00
2013-3-19,56,44,31,-100,-100,-100,0,0,100,0.00,40.00,0,-999,0,0.00
2013-3-20,56,42,25,-100,-100,-100,0,0,100,0.00,40.00,0,-999,0,0.00
2013-3-21,60,46,34,-100,-100,-100,0,0,100,0.00,40.00,0,-999,0,0.00
2013-3-22,59,42,20,-100,-100,-100,0,0,100,0.00,40.00,0,-999,0,0.00
2013-3-23,40,30,15,-100,-100,-100,0,0,100,0.00,40.00,0,-999,0,0.00
2013-3-24,44,26,10,-100,-100,-100,0,0,100,0.00,40.00,0,-999,0,0.00
2013-3-25,49,32,12,-100,-100,-100,0,0,100,0.00,40.00,0,-999,0,0.00
2013-3-26,58,40,23,-100,-100,-100,0,0,100,0.00,40.00,0,-999,0,0.00
2013-3-27,64,47,28,-100,-100,-100,0,0,100,0.00,40.00,0,-999,0,0.00
2013-3-28,65,50,33,-100,-100,-100,0,0,100,0.00,40.00,0,-999,0,0.00
2013-3-29,68,51,35,-100,-100,-100,0,0,100,0.00,40.00,0,-999,0,0.00
2013-3-30,67,50,32,-100,-100,-100,0,0,100,0.00,40.00,0,-999,0,0.00
2013-3-31,67,51,33,-100,-100,-100,0,0,100,0.00,40.00,0,-999,0,0.00
2013-4-1,67,53,37,-100,-100,-100,0,0,100,0.00,40.00,0,-999,0,0.00
2013-4-2,56,46,29,-100,-100,-100,0,0,100,0.00,40.00,0,-999,0,0.00
2013-4-3,65,46,27,-100,-100,-100,0,0,100,0.00,40.00,0,-999,0,0.00
2013-4-4,67,49,29,-100,-100,-100,0,0,100,0.00,40.00,0,-999,0,0.00
2013-4-5,68,54,39,-100,-100,-100,0,0,100,0.00,40.00,0,-999,0,0.00
2013-4-6,67,54,34,-100,-100,-100,0,0,100,0.00,40.00,0,-999,0,0.00
2013-4-7,67,54,35,-100,-100,-100,0,0,100,0.00,40.00,0,-999,0,0.00
2013-4-8,63,40,36,-100,-100,-100,0,0,100,0.00,40.00,0,-999,0,0.00
2013-4-9,43,37,32,-100,-100,-100,0,0,100,0.00,40.00,0,-999,0,0.00
2013-4-10,47,36,25,-100,-100,-100,0,0,100,0.00,40.00,0,-999,0,0.00
2013-4-11,54,44,36,-100,-100,-100,0,0,100,0.00,40.00,0,-999,0,0.00
2013-4-12,62,45,27,-100,-100,-100,0,0,100,0.00,40.00,0,-999,0,0.00
2013-4-13,67,51,28,-100,-100,-100,0,0,100,0.00,40.00,0,-999,0,0.00
2013-4-14,63,55,46,-100,-100,-100,0,0,100,0.00,40.00,0,-999,0,0.00
2013-4-15,68,58,46,-100,-100,-100,0,0,100,0.00,40.00,0,-999,0,0.00
2013-4-16,69,57,43,-100,-100,-100,0,0,100,0.00,40.00,0,-999,0,0.00
2013-4-17,52,42,32,-100,-100,-100,0,0,100,0.00,40.00,0,-999,0,0.00
2013-4-18,43,35,26,-100,-100,-100,0,0,100,0.00,40.00,0,-999,0,0.00
2013-4-19,55,42,19,-100,-100,-100,0,0,100,0.00,40.00,0,-999,0,0.00
2013-4-20,58,46,29,-100,-100,-100,0,0,100,0.00,40.00,0,-999,0,0.00
2013-4-21,63,45,25,-100,-100,-100,0,0,100,0.00,40.00,0,-999,0,0.00
2013-4-22,72,55,32,-100,-100,-100,0,0,100,0.00,40.00,0,-999,0,0.00
2013-4-23,58,48,30,-100,-100,-100,0,0,100,0.00,40.00,0,-999,0,0.00
2013-4-24,63,47,22,-100,-100,-100,0,0,100,0.00,40.00,0,-999,0,0.00
2013-4-25,68,54,37,-100,-100,-100,0,0,100,0.00,40.00,0,-999,0,0.00
2013-4-26,68,55,33,-100,-100,-100,0,0,100,0.00,40.00,0,-999,0,0.00
2013-4-27,72,55,32,-100,-100,-100,0,0,100,0.00,40.00,0,-999,0,0.00
2013-4-28,75,60,33,-100,-100,-100,0,0,100,0.00,40.00,0,-999,0,0.00
2013-4-29,77,60,37,-100,-100,-100,0,0,100,0.00,40.00,0,-999,0,0.00
2013-4-30,79,68,41,-100,-100,-100,0,0,100,0.00,40.00,0,-999,0,0.00
2013-5-1,66,58,43,-100,-100,-100,0,0,100,0.00,40.00,0,-999,0,0.00
2013-5-2,61,48,32,-100,-100,-100,0,0,100,0.00,40.00,0,-999,0,0.00
2013-5-3,65,47,27,-100,-100,-100,0,0,100,0.00,40.00,0,-999,0,0.00
2013-5-4,72,53,30,-100,-100,-100,0,0,100,0.00,40.00,0,-999,0,0.00
2013-5-5,70,60,50,-100,-100,-100,0,0,100,0.00,40.00,0,-999,0,0.00
2013-5-6,58,52,47,-100,-100,-100,0,0,100,0.00,40.00,0,-999,0,0.00
2013-5-7,66,52,38,-100,-100,-100,0,0,100,0.00,40.00,0,-999,0,0.00
2013-5-8,56,49,39,-100,-100,-100,0,0,100,0.00,40.00,0,-999,0,0.00
2013-5-9,59,46,36,-100,-100,-100,0,0,100,0.00,40.00,0,-999,0,0.00
2013-5-10,65,50,35,-100,-100,-100,0,0,100,0.00,40.00,0,-999,0,0.00
2013-5-11,69,55,36,-100,-100,-100,0,0,100,0.00,40.00,0,-999,0,0.00
2013-5-12,76,60,38,-100,-100,-100,0,0,100,0.00,40.00,0,-999,0,0.00
2013-5-13,80,67,45,-100,-100,-100,0,0,100,0.00,40.00,0,-999,0,0.00
2013-5-14,80,65,48,-100,-100,-100,0,0,100,0.00,40.00,0,-999,0,0.00
2013-5-15,80,68,48,-100,-100,-100,0,0,100,0.00,40.00,0,-999,0,0.00
2013-5-16,79,65,42,-100,-100,-100,0,0,100,0.00,40.00,0,-999,0,0.00
2013-5-17,77,63,40,-100,-100,-100,0,0,100,0.00,40.00,0,-999,0,0.00
2013-5-18,69,60,51,-100,-100,-100,0,0,100,0.00,40.00,0,-999,0,0.00
2013-5-19,66,58,48,-100,-100,-100,0,0,100,0.00,40.00,0,-999,0,0.00
2013-5-20,61,54,47,-100,-100,-100,0,0,100,0.00,40.00,0,-999,0,0.00
2013-5-21,70,59,34,-100,-100,-100,0,0,100,0.00,40.00,0,-999,0,0.00
2013-5-22,78,66,39,-100,-100,-100,0,0,100,0.00,40.00,0,-999,0,0.00
2013-5-23,83,68,42,-100,-100,-100,0,0,100,0.00,40.00,0,-999,0,0.00
2013-5-24,79,66,41,-100,-100,-100,0,0,100,0.00,40.00,0,-999,0,0.00
2013-5-25,81,65,39,-100,-100,-100,0,0,100,0.00,40.00,0,-999,0,0.00
2013-5-26,78,65,41,-100,-100,-100,0,0,100,0.00,40.00,0,-999,0,0.00
2013-5-27,75,61,40,-100,-100,-100,0,0,100,0.00,40.00,0,-999,0,0.00
2013-5-28,74,62,38,-100,-100,-100,0,0,100,0.00,40.00,0,-999,0,0.00
2013-5-29,68,60,48,-100,-100,-100,0,0,100,0.00,40.00,0,-999,0,0.00
2013-5-30,59,51,42,-100,-100,-100,0,0,100,0.00,40.00,0,-999,0,0.00
2013-5-31,74,69,47,-100,-100,-100,0,0,100,0.00,40.00,0,-999,0,0.00
2013-6-1,79,63,38,-100,-100,-100,0,0,100,0.00,40.00,0,-999,0,0.00
2013-6-2,84,70,42,-100,-100,-100,0,0,100,0.00,40.00,0,-999,0,0.00
2013-6-3,81,68,47,-100,-100,-100,0,0,100,0.00,40.00,0,-999,0,0.00
2013-6-4,85,69,46,-100,-100,-100,0,0,100,0.00,40.00,0,-999,0,0.00
2013-6-5,84,70,49,-100,-100,-100,0,0,100,0.00,40.00,0,-999,0,0.00
2013-6-6,85,70,47,-100,-100,-100,0,0,100,0.00,40.00,0,-999,0,0.00
2013-6-7,85,68,49,-100,-100,-100,0,0,100,0.00,40.00,0,-999,0,0.00
2013-6-8,89,74,49,-100,-100,-100,0,0,100,0.00,40.00,0,-999,0,0.00
2013-6-9,92,77,50,-100,-100,-100,0,0,100,0.00,40.00,0,-999,0,0.00
2013-6-10,93,76,51,-100,-100,-100,0,0,100,0.00,40.00,0,-999,0,0.00
2013-6-11,87,75,49,-100,-100,-100,0,0,100,0.00,40.00,0,-999,0,0.00
2013-6-12,88,72,52,-100,-100,-100,0,0,100,0.00,40.00,0,-999,0,0.00
2013-6-13,90,75,53,-100,-100,-100,0,0,100,0.00,40.00,0,-999,0,0.00
2013-6-14,87,76,60,-100,-100,-100,0,0,100,0.00,40.00,0,-999,0,0.00
2013-6-15,86,69,49,-100,-100,-100,0,0,100,0.00,40.00,0,-999,0,0.00
2013-6-16,82,66,50,-100,-100,-100,0,0,100,0.00,40.00,0,-999,0,0.00
2013-6-17,86,72,52,-100,-100,-100,0,0,100,0.00,40.00,0,-999,0,0.00
2013-6-18,87,72,47,-100,-100,-100,0,0,100,0.00,40.00,0,-999,0,0.00
2013-6-19,87,71,44,-100,-100,-100,0,0,100,0.00,40.00,0,-999,0,0.00
2013-6-20,83,63,45,-100,-100,-100,0,0,100,0.00,40.00,0,-999,0,0.00
2013-6-22,84,78,58,-100,-100,-100,0,0,100,0.00,40.00,0,-999,0,0.00
2013-6-23,85,69,47,-100,-100,-100,0,0,100,0.00,40.00,0,-999,0,0.00
2013-6-24,82,68,50,-100,-100,-100,0,0,100,0.00,40.00,0,-999,0,0.00
2013-6-25,84,70,46,-100,-100,-100,0,0,100,0.00,40.00,0,-999,0,0.00
2013-6-26,91,74,51,-100,-100,-100,0,0,100,0.00,40.00,0,-999,0,0.00
2013-6-27,96,78,56,-100,-100,-100,0,0,100,0.00,40.00,0,-999,0,0.00
2013-6-28,95,80,60,-100,-100,-100,0,0,100,0.00,40.00,0,-999,0,0.00
2013-6-29,90,72,58,-100,-100,-100,0,0,100,0.00,40.00,0,-999,0,0.00
2013-6-30,90,77,57,-100,-100,-100,0,0,100,0.00,40.00,0,-999,0,0.00
2013-7-1,93,74,55,-100,-100,-100,0,0,100,0.00,40.00,0,-999,0,0.00
2013-7-2,85,72,56,-100,-100,-100,0,0,100,0.00,40.00,0,-999,0,0.00
2013-7-3,91,74,59,-100,-100,-100,0,0,100,0.00,40.00,0,-999,0,0.00
2013-7-4,89,75,58,-100,-100,-100,0,0,100,0.00,40.00,0,-999,0,0.00
2013-7-5,90,76,62,-100,-100,-100,0,0,100,0.00,40.00,0,-999,0,0.00
2013-7-6,90,73,59,-100,-100,-100,0,0,100,0.00,40.00,0,-999,0,0.00
2013-7-7,90,77,61,-100,-100,-100,0,0,100,0.00,40.00,0,-999,0,0.00
2013-7-8,92,75,62,-100,-100,-100,0,0,100,0.00,40.00,0,-999,0,0.00
2013-7-9,91,78,60,-100,-100,-100,0,0,100,0.00,40.00,0,-999,0,0.00
2013-7-10,91,76,59,-100,-100,-100,0,0,100,0.00,40.00,0,-999,0,0.00
2013-7-11,88,73,60,-100,-100,-100,0,0,100,0.00,40.00,0,-999,0,0.00
2013-7-12,86,72,60,-100,-100,-100,0,0,100,0.00,40.00,0,-999,0,0.00
2013-7-13,88,74,58,-100,-100,-100,0,0,100,0.00,40.00,0,-999,0,0.00
2013-7-14,91,75,65,-100,-100,-100,0,0,100,0.00,40.00,0,-999,0,0.00
2013-7-15,79,67,58,-100,-100,-100,0,0,100,0.00,40.00,0,-999,0,0.00
2013-7-16,77,68,59,-100,-100,-100,0,0,100,0.00,40.00,0,-999,0,0.00
2013-7-17,83,71,61,-100,-100,-100,0,0,100,0.00,40.00,0,-999,0,0.00
2013-7-18,86,75,57,-100,-100,-100,0,0,100,0.00,40.00,0,-999,0,0.00
2013-7-19,87,74,60,-100,-100,-100,0,0,100,0.00,40.00,0,-999,0,0.00
2013-7-20,87,71,59,-100,-100,-100,0,0,100,0.00,40.00,0,-999,0,0.00
2013-7-21,86,73,57,-100,-100,-100,0,0,100,0.00,40.00,0,-999,0,0.00
2013-7-22,89,73,57,-100,-100,-100,0,0,100,0.00,40.00,0,-999,0,0.00
2013-7-23,92,77,66,-100,-100,-100,0,0,100,0.00,40.00,0,-999,0,0.00
2013-7-24,90,76,65,-100,-100,-100,0,0,100,0.00,40.00,0,-999,0,0.00
2013-7-25,91,74,59,-100,-100,-100,0,0,100,0.00,40.00,0,-999,0,0.00
2013-7-26,86,75,64,-100,-100,-100,0,0,100,0.00,40.00,0,-999,0,0.00
2013-7-27,85,72,56,-100,-100,-100,0,0,100,0.00,40.00,0,-999,0,0.00
2013-7-28,83,70,61,-100,-100,-100,0,0,100,0.00,40.00,0,-999,0,0.00
2013-7-29,84,72,58,-100,-100,-100,0,0,100,0.00,40.00,0,-999,0,0.00
2013-7-30,88,72,56,-100,-100,-100,0,0,100,0.00,40.00,0,-999,0,0.00
2013-7-31,92,77,57,-100,-100,-100,0,0,100,0.00,40.00,0,-999,0,0.00
2013-8-1,82,72,65,-100,-100,-100,0,0,100,0.00,40.00,0,-999,0,0.00
2013-8-2,84,71,61,-100,-100,-100,0,0,100,0.00,40.00,0,-999,0,0.00
2013-8-3,84,72,60,-100,-100,-100,0,0,100,0.00,40.00,0,-999,0,0.00
2013-8-4,88,73,57,-100,-100,-100,0,0,100,0.00,40.00,0,-999,0,0.00
2013-8-5,85,69,56,-100,-100,-100,0,0,100,0.00,40.00,0,-999,0,0.00
2013-8-6,79,66,57,-100,-100,-100,0,0,100,0.00,40.00,0,-999,0,0.00
2013-8-7,71,62,56,-100,-100,-100,0,0,100,0.00,40.00,0,-999,0,0.00
2013-8-8,74,63,54,-100,-100,-100,0,0,100,0.00,40.00,0,-999,0,0.00
2013-8-9,82,67,49,-100,-100,-100,0,0,100,0.00,40.00,0,-999,0,0.00
2013-8-10,81,63,52,-100,-100,-100,0,0,100,0.00,40.00,0,-999,0,0.00
2013-8-11,80,65,49,-100,-100,-100,0,0,100,0.00,40.00,0,-999,0,0.00
2013-8-12,81,70,55,-100,-100,-100,0,0,100,0.00,40.00,0,-999,0,0.00
2013-8-13,85,70,53,-100,-100,-100,0,0,100,0.00,40.00,0,-999,0,0.00
2013-8-14,87,71,53,-100,-100,-100,0,0,100,0.00,40.00,0,-999,0,0.00
2013-8-15,89,71,54,-100,-100,-100,0,0,100,0.00,40.00,0,-999,0,0.00
2013-8-16,89,74,56,-100,-100,-100,0,0,100,0.00,40.00,0,-999,0,0.00
2013-8-17,88,71,56,-100,-100,-100,0,0,100,0.00,40.00,0,-999,0,0.00
2013-8-18,86,72,57,-100,-100,-100,0,0,100,0.00,40.00,0,-999,0,0.00
2013-8-19,90,75,59,-100,-100,-100,0,0,100,0.00,40.00,0,-999,0,0.00
2013-8-20,87,73,57,-100,-100,-100,0,0,100,0.00,40.00,0,-999,0,0.00
2013-8-21,89,71,58,-100,-100,-100,0,0,100,0.00,40.00,0,-999,0,0.00
2013-8-22,84,67,56,-100,-100,-100,0,0,100,0.00,40.00,0,-999,0,0.00
2013-8-23,86,74,59,-100,-100,-100,0,0,100,0.00,40.00,0,-999,0,0.00
2013-8-24,80,69,60,-100,-100,-100,0,0,100,0.00,40.00,0,-999,0,0.00
2013-8-25,74,64,60,-100,-100,-100,0,0,100,0.00,40.00,0,-999,0,0.00
2013-8-26,82,70,59,-100,-100,-100,0,0,100,0.00,40.00,0,-999,0,0.00
2013-8-27,81,68,58,-100,-100,-100,0,0,100,0.00,40.00,0,-999,0,0.00
2013-8-28,86,80,69,-100,-100,-100,0,0,100,0.00,40.00,0,-999,0,0.00
2013-8-29,87,75,58,-100,-100,-100,0,0,100,0.00,40.00,0,-999,0,0.00
2013-8-30,88,76,61,-100,-100,-100,0,0,100,0.00,40.00,0,-999,0,0.00
2013-8-31,88,74,58,-100,-100,-100,0,0,100,0.00,40.00,0,-999,0,0.00
2013-9-1,87,74,57,-100,-100,-100,0,0,100,0.00,40.00,0,-999,0,0.00
2013-9-2,87,72,58,-100,-100,-100,0,0,100,0.00,40.00,0,-999,0,0.00
2013-9-3,86,73,62,-100,-100,-100,0,0,100,0.00,40.00,0,-999,0,0.00
2013-9-4,89,74,59,-100,-100,-100,0,0,100,0.00,40.00,0,-999,0,0.00
2013-9-5,88,77,59,-100,-100,-100,0,0,100,0.00,40.00,0,-999,0,0.00
2013-9-6,88,74,55,-100,-100,-100,0,0,100,0.00,40.00,0,-999,0,0.00
2013-9-7,88,73,57,-100,-100,-100,0,0,100,0.00,40.00,0,-999,0,0.00
2013-9-8,81,70,57,-100,-100,-100,0,0,100,0.00,40.00,0,-999,0,0.00
2013-9-9,80,64,56,-100,-100,-100,0,0,100,0.00,40.00,0,-999,0,0.00
2013-9-10,63,60,57,-100,-100,-100,0,0,100,0.00,40.00,0,-999,0,0.00
2013-9-11,75,65,56,-100,-100,-100,0,0,100,0.00,40.00,0,-999,0,0.00
2013-9-12,74,61,54,-100,-100,-100,0,0,100,0.00,40.00,0,-999,0,0.00
2013-9-13,72,61,52,-100,-100,-100,0,0,100,0.00,40.00,0,-999,0,0.00
2013-9-14,71,62,54,-100,-100,-100,0,0,100,0.00,40.00,0,-999,0,0.00
2013-9-15,74,61,53,-100,-100,-100,0,0,100,0.00,40.00,0,-999,0,0.00
2013-9-16,77,64,52,-100,-100,-100,0,0,100,0.00,40.00,0,-999,0,0.00
2013-9-17,79,66,54,-100,-100,-100,0,0,100,0.00,40.00,0,-999,0,0.00
2013-9-18,62,59,56,-100,-100,-100,0,0,100,0.00,40.00,0,-999,0,0.00
2013-9-19,77,63,50,-100,-100,-100,0,0,100,0.00,40.00,0,-999,0,0.00
2013-9-20,78,59,45,-100,-100,-100,0,0,100,0.00,40.00,0,-999,0,0.00
2013-9-21,76,64,50,-100,-100,-100,0,0,100,0.00,40.00,0,-999,0,0.00
2013-9-22,67,56,46,-100,-100,-100,0,0,100,0.00,40.00,0,-999,0,0.00
2013-9-23,66,55,37,-100,-100,-100,0,0,100,0.00,40.00,0,-999,0,0.00
2013-9-24,72,55,38,-100,-100,-100,0,0,100,0.00,40.00,0,-999,0,0.00
2013-9-25,77,62,42,-100,-100,-100,0,0,100,0.00,40.00,0,-999,0,0.00
2013-9-26,73,67,51,-100,-100,-100,0,0,100,0.00,40.00,0,-999,0,0.00
2013-9-27,63,50,36,-100,-100,-100,0,0,100,0.00,40.00,0,-999,0,0.00
2013-9-28,62,44,28,-100,-100,-100,0,0,100,0.00,40.00,0,-999,0,0.00
2013-9-29,70,50,33,-100,-100,-100,0,0,100,0.00,40.00,0,-999,0,0.00
2013-9-30,74,56,39,-100,-100,-100,0,0,100,0.00,40.00,0,-999,0,0.00
2013-10-1,74,60,46,-100,-100,-100,0,0,100,0.00,40.00,0,-999,0,0.00
2013-10-2,73,55,39,-100,-100,-100,0,0,100,0.00,40.00,0,-999,0,0.00
2013-10-3,70,55,37,-100,-100,-100,0,0,100,0.00,40.00,0,-999,0,0.00
2013-10-4,52,45,35,-100,-100,-100,0,0,100,0.00,40.00,0,-999,0,0.00
2013-10-5,59,43,25,-100,-100,-100,0,0,100,0.00,40.00,0,-999,0,0.00
2013-10-6,62,46,28,-100,-100,-100,0,0,100,0.00,40.00,0,-999,0,0.00
2013-10-7,70,51,34,-100,-100,-100,0,0,100,0.00,40.00,0,-999,0,0.00
2013-10-8,71,54,39,-100,-100,-100,0,0,100,0.00,40.00,0,-999,0,0.00
2013-10-9,69,56,37,-100,-100,-100,0,0,100,0.00,40.00,0,-999,0,0.00
2013-10-10,58,46,39,-100,-100,-100,0,0,100,0.00,40.00,0,-999,0,0.00
2013-10-11,55,42,33,-100,-100,-100,0,0,100,0.00,40.00,0,-999,0,0.00
2013-10-12,60,46,33,-100,-100,-100,0,0,100,0.00,40.00,0,-999,0,0.00
2013-10-13,70,54,39,-100,-100,-100,0,0,100,0.00,40.00,0,-999,0,0.00
2013-10-14,57,47,33,-100,-100,-100,0,0,100,0.00,40.00,0,-999,0,0.00
2013-10-15,57,45,29,-100,-100,-100,0,0,100,0.00,40.00,0,-999,0,0.00
2013-10-16,53,42,29,-100,-100,-100,0,0,100,0.00,40.00,0,-999,0,0.00
2013-10-17,57,42,26,-100,-100,-100,0,0,100,0.00,40.00,0,-999,0,0.00
2013-10-18,57,44,25,-100,-100,-100,0,0,100,0.00,40.00,0,-999,0,0.00
2013-10-19,61,44,26,-100,-100,-100,0,0,100,0.00,40.00,0,-999,0,0.00
2013-10-20,63,44,28,-100,-100,-100,0,0,100,0.00,40.00,0,-999,0,0.00
2013-10-21,63,46,31,-100,-100,-100,0,0,100,0.00,40.00,0,-999,0,0.00
2013-10-22,64,45,30,-100,-100,-100,0,0,100,0.00,40.00,0,-999,0,0.00
2013-10-23,68,47,32,-100,-100,-100,0,0,100,0.00,40.00,0,-999,0,0.00
2013-10-24,70,53,36,-100,-100,-100,0,0,100,0.00,40.00,0,-999,0,0.00
2013-10-25,63,50,43,-100,-100,-100,0,0,100,0.00,40.00,0,-999,0,0.00
2013-10-26,64,49,37,-100,-100,-100,0,0,100,0.00,40.00,0,-999,0,0.00
2013-10-27,63,48,34,-100,-100,-100,0,0,100,0.00,40.00,0,-999,0,0.00
2013-10-28,66,54,38,-100,-100,-100,0,0,100,0.00,40.00,0,-999,0,0.00
2013-10-29,55,48,34,-100,-100,-100,0,0,100,0.00,40.00,0,-999,0,0.00
2013-10-30,47,36,31,-100,-100,-100,0,0,100,0.00,40.00,0,-999,0,0.00
2013-10-31,47,39,27,-100,-100,-100,0,0,100,0.00,40.00,0,-999,0,0.00
2013-11-1,56,44,29,-100,-100,-100,0,0,100,0.00,40.00,0,-999,0,0.00
2013-11-2,61,41,27,-100,-100,-100,0,0,100,0.00,40.00,0,-999,0,0.00
2013-11-3,60,44,33,-100,-100,-100,0,0,100,0.00,40.00,0,-999,0,0.00
2013-11-4,54,39,25,-100,-100,-100,0,0,100,0.00,40.00,0,-999,0,0.00
2013-11-5,44,37,27,-100,-100,-100,0,0,100,0.00,40.00,0,-999,0,0.00
2013-11-6,50,32,16,-100,-100,-100,0,0,100,0.00,40.00,0,-999,0,0.00
2013-11-7,58,36,21,-100,-100,-100,0,0,100,0.00,40.00,0,-999,0,0.00
2013-11-8,60,42,27,-100,-100,-100,0,0,100,0.00,40.00,0,-999,0,0.00
2013-11-9,65,43,27,-100,-100,-100,0,0,100,0.00,40.00,0,-999,0,0.00
2013-11-10,63,41,28,-100,-100,-100,0,0,100,0.00,40.00,0,-999,0,0.00
2013-11-11,63,42,27,-100,-100,-100,0,0,100,0.00,40.00,0,-999,0,0.00
2013-11-12,66,45,29,-100,-100,-100,0,0,100,0.00,40.00,0,-999,0,0.00
2013-11-13,57,42,28,-100,-100,-100,0,0,100,0.00,40.00,0,-999,0,0.00
2013-11-14,58,40,27,-100,-100,-100,0,0,100,0.00,40.00,0,-999,0,0.00
2013-11-15,56,40,27,-100,-100,-100,0,0,100,0.00,40.00,0,-999,0,0.00
2013-11-16,50,42,32,-100,-100,-100,0,0,100,0.00,40.00,0,-999,0,0.00
2013-11-17,53,42,29,-100,-100,-100,0,0,100,0.00,40.00,0,-999,0,0.00
2013-11-18,55,37,26,-100,-100,-100,0,0,100,0.00,40.00,0,-999,0,0.00
2013-11-19,55,42,29,-100,-100,-100,0,0,100,0.00,40.00,0,-999,0,0.00
2013-11-20,52,39,29,-100,-100,-100,0,0,100,0.00,40.00,0,-999,0,0.00
2013-11-21,48,42,40,-100,-100,-100,0,0,100,0.00,40.00,0,-999,0,0.00
2013-11-22,41,39,37,-100,-100,-100,0,0,100,0.00,40.00,0,-999,0,0.00
2013-11-23,42,37,32,-100,-100,-100,0,0,100,0.00,40.00,0,-999,0,0.00
2013-11-24,32,28,27,-100,-100,-100,0,0,100,0.00,40.00,0,-999,0,0.00
2013-11-25,34,32,28,-100,-100,-100,0,0,100,0.00,40.00,0,-999,0,0.00
2013-11-26,36,33,29,-100,-100,-100,0,0,100,0.00,40.00,0,-999,0,0.00
2013-11-27,46,33,25,-100,-100,-100,0,0,100,0.00,40.00,0,-999,0,0.00
2013-11-28,50,35,26,-100,-100,-100,0,0,100,0.00,40.00,0,-999,0,0.00
2013-11-29,51,35,25,-100,-100,-100,0,0,100,0.00,40.00,0,-999,0,0.00
2013-11-30,38,30,22,-100,-100,-100,0,0,100,0.00,40.00,0,-999,0,0.00
2013-12-1,34,31,29,-100,-100,-100,0,0,100,0.00,40.00,0,-999,0,0.00
2013-12-2,39,31,25,-100,-100,-100,0,0,100,0.00,40.00,0,-999,0,0.00
2013-12-3,52,38,24,-100,-100,-100,0,0,100,0.00,40.00,0,-999,0,0.00
2013-12-4,46,34,14,-100,-100,-100,0,0,100,0.00,40.00,0,-999,0,0.00
2013-12-5,29,20,11,-100,-100,-100,0,0,100,0.00,40.00,0,-999,0,0.00
2013-12-6,29,21,16,-100,-100,-100,0,0,100,0.00,40.00,0,-999,0,0.00
2013-12-7,34,26,15,-100,-100,-100,0,0,100,0.00,40.00,0,-999,0,0.00
2013-12-8,29,21,2,-100,-100,-100,0,0,100,0.00,40.00,0,-999,0,0.00
2013-12-9,23,9,-5,-100,-100,-100,0,0,100,0.00,40.00,0,-999,0,0.00
2013-12-10,27,10,-3,-100,-100,-100,0,0,100,0.00,40.00,0,-999,0,0.00
2013-12-11,36,16,4,-100,-100,-100,0,0,100,0.00,40.00,0,-999,0,0.00
2013-12-12,45,24,12,-100,-100,-100,0,0,100,0.00,40.00,0,-999,0,0.00
2013-12-13,40,28,16,-100,-100,-100,0,0,100,0.00,40.00,0,-999,0,0.00
2013-12-14,40,26,12,-100,-100,-100,0,0,100,0.00,40.00,0,-999,0,0.00
2013-12-15,40,24,13,-100,-100,-100,0,0,100,0.00,40.00,0,-999,0,0.00
2013-12-16,43,26,15,-100,-100,-100,0,0,100,0.00,40.00,0,-999,0,0.00
2013-12-17,46,29,15,-100,-100,-100,0,0,100,0.00,40.00,0,-999,0,0.00
2013-12-18,47,32,20,-100,-100,-100,0,0,100,0.00,40.00,0,-999,0,0.00
2013-12-19,52,38,27,-100,-100,-100,0,0,100,0.00,40.00,0,-999,0,0.00
2013-12-20,44,36,24,-100,-100,-100,0,0,100,0.00,40.00,0,-999,0,0.00
2013-12-21,38,30,17,-100,-100,-100,0,0,100,0.00,40.00,0,-999,0,0.00
2013-12-22,41,29,16,-100,-100,-100,0,0,100,0.00,40.00,0,-999,0,0.00
2013-12-23,41,27,14,-100,-100,-100,0,0,100,0.00,40.00,0,-999,0,0.00
2013-12-24,47,31,16,-100,-100,-100,0,0,100,0.00,40.00,0,-999,0,0.00
2013-12-25,42,26,12,-100,-100,-100,0,0,100,0.00,40.00,0,-999,0,0.00
2013-12-26,42,24,13,-100,-100,-100,0,0,100,0.00,40.00,0,-999,0,0.00
2013-12-27,47,27,16,-100,-100,-100,0,0,100,0.00,40.00,0,-999,0,0.00
2013-12-28,45,29,17,-100,-100,-100,0,0,100,0.00,40.00,0,-999,0,0.00
2013-12-29,45,29,15,-100,-100,-100,0,0,100,0.00,40.00,0,-999,0,0.00
2013-12-30,43,25,12,-100,-100,-100,0,0,100,0.00,40.00,0,-999,0,0.00
2013-12-31,48,29,16,-100,-100,-100,0,0,100,0.00,40.00,0,-999,0,0.00
2014-1-1,52,37,18,-100,-100,-100,0,0,100,0.00,40.00,0,-999,0,0.00
2014-1-2,46,27,14,-100,-100,-100,0,0,100,0.00,40.00,0,-999,0,0.00